• Join FlightAware (Why Join?)
  • Login
  • US Flag 
01:03AM EDT


 

Airport Tracker/Info


-or-


 

Live Flight TrackerFlight Track Log ✈ DAL930 ✈ 11-Apr-2013 ✈ KLGA - KFLL

Flight Track Log - Related Links

Times and Time Zones

All times are in EDT time to prevent confusion due to time zone crossing. See the DAL930 flight status page for this flight to view local times or setup timezone preferences in your user account.

Time Position Orientation Groundspeed Altitude Reporting Facility
EDT Latitude Longitude Course Direction KTS MPH feet Rate Location/Type
12:13PM 40.7333 -73.8333 194° South 197 227 1,800  Level New York TRACON
12:14PM 40.6833 -73.8500 194° South 233 268 4,600 2,520 Climbing New York TRACON
12:16PM 40.5567 -73.9397 208° Southwest 265 305 9,500 2,460 Climbing New York Center
12:17PM 40.5256 -74.0092 240° Southwest 233 268 12,200 2,340 Climbing New York Center
12:18PM 40.5503 -74.0922 291° West 218 251 14,200 1,800 Climbing New York Center
12:19PM 40.4847 -74.1272 202° Southwest 205 236 15,800 1,200 Climbing New York Center
12:20PM 40.3989 -74.1422 188° South 273 314 16,700 540 Climbing New York Center
12:21PM 40.2961 -74.1672 191° South 355 409 16,900 120 Climbing New York Center
12:22PM 40.1939 -74.1647 179° South 375 432 17,000 720 Climbing New York Center
12:23PM 40.0992 -74.1981 195° South 375 432 18,400 1,500 Climbing New York Center
12:24PM 40.0217 -74.2864 221° Southwest 356 410 20,100 1,560 Climbing New York Center
12:26PM 39.8481 -74.4889 222° Southwest 380 437 23,500 1,260 Climbing Washington Center
12:27PM 39.7736 -74.5711 220° Southwest 385 443 24,200 780 Climbing Washington Center
12:28PM 39.6850 -74.6719 221° Southwest 401 461 25,100 1,020 Climbing Washington Center
12:29PM 39.5961 -74.7756 222° Southwest 420 483 26,300 1,380 Climbing Washington Center
12:30PM 39.5050 -74.8789 221° Southwest 436 502 27,900 1,500 Climbing Washington Center
12:31PM 39.4139 -74.9817 221° Southwest 441 507 29,300 1,020 Climbing Washington Center
12:32PM 39.3247 -75.0844 222° Southwest 436 502 30,000 660 Climbing Washington Center
12:33PM 39.2125 -75.1494 204° Southwest 436 502 30,700 900 Climbing Washington Center
12:34PM 39.0939 -75.1958 197° South 441 507 31,800 600 Climbing Washington Center
12:35PM 38.9775 -75.2472 199° South 446 513 32,000 60 Climbing Washington Center
12:36PM 38.8608 -75.2958 198° South 446 513 32,000  Level Washington Center
12:37PM 38.7419 -75.3414 197° South 446 513 32,000  Level Washington Center
12:38PM 38.6233 -75.3897 198° South 446 513 32,000  Level Washington Center
12:39PM 38.5067 -75.4406 199° South 446 513 32,000  Level Washington Center
12:40PM 38.3900 -75.4936 200° South 446 513 32,000  Level Washington Center
12:41PM 38.2650 -75.5600 203° Southwest 446 513 32,000  Level Washington Center
12:42PM 38.1522 -75.6286 206° Southwest 446 513 32,000  Level Washington Center
12:43PM 38.0397 -75.6972 206° Southwest 446 513 32,000  Level Washington Center
12:44PM 37.9436 -75.7656 209° Southwest 446 513 32,000  Level Washington Center
12:45PM 37.8206 -75.8361 204° Southwest 446 513 32,000  Level Washington Center
12:46PM 37.7222 -75.9042 209° Southwest 446 513 32,000  Level Washington Center
12:47PM 37.6117 -75.9744 207° Southwest 446 513 32,000  Level Washington Center
12:48PM 37.4986 -76.0419 205° Southwest 446 513 32,000  Level Washington Center
12:49PM 37.3878 -76.1094 206° Southwest 446 513 32,000  Level Washington Center
12:50PM 37.2583 -76.1789 203° Southwest 451 519 32,000  Level Washington Center
12:51PM 37.1472 -76.2483 206° Southwest 451 519 32,000  Level Washington Center
12:52PM 37.0364 -76.3153 206° Southwest 451 519 32,000  Level Washington Center
12:53PM 36.9253 -76.3817 206° Southwest 445 512 32,000  Level Washington Center
12:54PM 36.8144 -76.4506 206° Southwest 445 512 32,000  Level Washington Center
12:55PM 36.7033 -76.5194 206° Southwest 445 512 32,000  Level Washington Center
12:56PM 36.6047 -76.5803 206° Southwest 445 512 32,000  Level Washington Center
12:57PM 36.4936 -76.6461 205° Southwest 445 512 32,000  Level Washington Center
12:58PM 36.3825 -76.7117 205° Southwest 445 512 32,000  Level Washington Center
12:59PM 36.2692 -76.7769 205° Southwest 445 512 32,000  Level Washington Center
01:00PM 36.1453 -76.8472 205° Southwest 445 512 32,000  Level Washington Center
01:01PM 36.0339 -76.9122 205° Southwest 445 512 32,000  Level Washington Center
01:02PM 35.9228 -76.9797 206° Southwest 445 512 32,000 -60 Level Washington Center
01:03PM 35.8114 -77.0444 205° Southwest 445 512 31,900  Descending Washington Center
01:04PM 35.7000 -77.1114 206° Southwest 445 512 32,000  Climbing Washington Center
01:05PM 35.6033 -77.1656 204° Southwest 433 498 32,000  Level Washington Center
01:06PM 35.4917 -77.2325 206° Southwest 438 504 32,000  Level Washington Center
01:07PM 35.3822 -77.2989 206° Southwest 438 504 32,000  Level Washington Center
01:08PM 35.2667 -77.3625 204° Southwest 444 511 32,000  Level Washington Center
01:09PM 35.1531 -77.4261 205° Southwest 451 519 32,000  Level Washington Center
01:10PM 35.0414 -77.4922 206° Southwest 451 519 32,000  Level Washington Center
01:11PM 34.9278 -77.5528 204° Southwest 446 513 32,000  Level Washington Center
01:12PM 34.8181 -77.6186 206° Southwest 446 513 32,000  Level Washington Center
01:13PM 34.7044 -77.6814 204° Southwest 446 513 32,000  Level Washington Center
01:14PM 34.5886 -77.7464 205° Southwest 446 513 32,000  Level Washington Center
01:15PM 34.4747 -77.8089 204° Southwest 446 513 32,000  Level Washington Center
01:17PM 34.2122 -77.9233 200° South 454 522 32,000  Level Jacksonville Center
01:18PM 34.0842 -77.9583 193° South 464 534 32,000  Level Jacksonville Center
01:19PM 33.9603 -77.9903 192° South 469 540 32,000  Level Jacksonville Center
01:20PM 33.8367 -78.0297 195° South 469 540 32,000  Level Jacksonville Center
01:21PM 33.7147 -78.0639 193° South 464 534 32,000  Level Jacksonville Center
01:22PM 33.5786 -78.1039 194° South 464 534 32,000  Level Jacksonville Center
01:23PM 33.4525 -78.1381 193° South 464 534 32,000  Level Jacksonville Center
01:24PM 33.3350 -78.1742 194° South 464 534 32,000  Level Jacksonville Center
01:25PM 33.2111 -78.2106 194° South 464 534 32,000  Level Jacksonville Center
01:26PM 33.0872 -78.2417 192° South 464 534 32,000  Level Jacksonville Center
01:27PM 32.9653 -78.2778 194° South 464 534 32,000  Level Jacksonville Center
01:28PM 32.8433 -78.3111 193° South 464 534 32,000  Level Jacksonville Center
01:29PM 32.7214 -78.3444 193° South 459 528 32,000  Level Jacksonville Center
01:30PM 32.5933 -78.3781 192° South 464 534 32,000  Level Jacksonville Center
01:31PM 32.4672 -78.4164 194° South 464 534 32,000  Level Jacksonville Center
01:32PM 32.3681 -78.4408 192° South 464 534 32,000  Level Jacksonville Center
01:33PM 32.2339 -78.4819 195° South 464 534 32,000  Level Jacksonville Center
01:34PM 32.1058 -78.5222 195° South 471 542 32,000  Level Jacksonville Center
01:35PM 31.9569 -78.5661 194° South 471 542 32,000  Level Jacksonville Center
01:36PM 31.8308 -78.6039 194° South 466 536 32,000  Level Jacksonville Center
01:37PM 31.7128 -78.6311 191° South 466 536 32,000  Level Jacksonville Center
01:38PM 31.5847 -78.6714 195° South 466 536 32,000  Level Jacksonville Center
01:39PM 31.4606 -78.7061 193° South 466 536 32,000  Level Jacksonville Center
01:40PM 31.3367 -78.7433 194° South 471 542 32,000  Level Jacksonville Center
01:41PM 31.2147 -78.7778 194° South 466 536 32,000  Level Jacksonville Center
01:43PM 31.0723 -78.8147 193° South  Level FlightAware Approximate
01:44PM 30.8339 -78.8839 194° South 450 518 32,000  Level Jacksonville Center
01:45PM 30.7119 -78.9206 194° South 459 528 32,000  Level Jacksonville Center
01:46PM 30.5878 -78.9547 193° South 459 528 32,000  Level Jacksonville Center
01:47PM 30.4614 -78.9886 193° South 467 537 32,000  Level Jacksonville Center
01:48PM 30.3600 -79.0142 192° South 489 563 32,000  Level Miami Center
01:49PM 30.2406 -79.0478 194° South 467 537 32,000  Level Miami Center
01:50PM 30.3245 -79.0097 194° South  Level FlightAware Approximate
01:50PM 30.1108 -79.0786 192° South 467 537 32,000  Level Miami Center
01:51PM 29.9747 -79.1261 197° South 467 537 32,000  Level Miami Center
01:52PM 29.8469 -79.1594 193° South 473 544 32,000 -300 Level Miami Center
01:53PM 29.7150 -79.1900 191° South 478 550 31,400 -1,080 Descending Miami Center
01:54PM 29.5914 -79.2256 194° South 472 543 29,900 -1,380 Descending Miami Center
01:55PM 29.4658 -79.2561 192° South 465 535 28,700 -960 Descending Miami Center
01:56PM 29.3339 -79.2794 189° South 465 535 28,000 -360 Descending Miami Center
01:57PM 29.2042 -79.3122 192° South 480 552 28,000  Level Miami Center
01:58PM 29.0972 -79.3431 194° South 480 552 28,000  Level Miami Center
01:59PM 28.9631 -79.3733 191° South 470 541 28,000  Level Miami Center
02:00PM 28.8333 -79.4036 192° South 470 541 28,000  Level Miami Center
02:01PM 28.7075 -79.4386 194° South 470 541 28,000  Level Miami Center
02:02PM 28.5775 -79.4661 191° South 470 541 28,000  Level Miami Center
02:03PM 28.4494 -79.5011 194° South 470 541 28,000  Level Miami Center
02:04PM 28.3153 -79.5333 192° South 475 547 28,000  Level Miami Center
02:05PM 28.1853 -79.5656 192° South 480 552 28,000  Level Miami Center
02:06PM 28.0533 -79.5953 191° South 485 558 28,000  Level Miami Center
02:07PM 27.9211 -79.6275 192° South 491 565 28,000  Level Miami Center
02:08PM 27.7889 -79.6594 192° South 484 557 28,000 -60 Level Miami Center
02:09PM 27.6444 -79.6933 192° South 489 563 27,900 -840 Descending Miami Center
02:10PM 27.5142 -79.7275 193° South 489 563 26,400 -1,740 Descending Miami Center
02:11PM 27.3861 -79.7594 192° South 484 557 24,500 -1,320 Descending Miami Center
02:12PM 27.2733 -79.7661 183° South 468 539 23,800 -1,500 Descending Miami Center
02:13PM 27.1486 -79.7325 167° South 451 519 21,500 -2,520 Descending Miami Center
02:14PM 27.0200 -79.6897 163° South 448 516 18,800 -2,520 Descending Miami Center
02:15PM 26.9267 -79.6642 166° South 422 486 16,900 -2,460 Descending Miami Center
02:16PM 26.8328 -79.6503 172° South 394 453 14,800 -2,340 Descending Miami Center
02:16PM 26.8014 -79.6589 194° South 388 447 14,200 -2,340 Descending Miami Center
02:17PM 26.7339 -79.6944 205° Southwest 374 430 12,400 -2,400 Descending Miami Center
02:17PM 26.7128 -79.7008 195° South 378 435 11,800 -2,460 Descending Miami Center
02:18PM 26.6367 -79.7408 205° Southwest 371 427 9,900 -2,640 Descending Miami Center
02:18PM 26.6094 -79.7519 200° South 378 435 9,200 -1,800 Descending Miami Center
02:19PM 26.5461 -79.7850 205° Southwest 360 414 8,100 -1,200 Descending Miami Center
02:19PM 26.5272 -79.7917 198° South 363 418 8,000 -120 Descending Miami Center
02:20PM 26.4575 -79.8247 203° Southwest 294 338 8,000  Level Miami Center
02:20PM 26.4428 -79.8336 208° Southwest 323 372 8,000 60 Level Miami Center
02:21PM 26.3881 -79.8578 202° Southwest 264 304 8,100 -600 Climbing Miami Center
02:22PM 26.3283 -79.9119 219° Southwest 273 314 7,000 -540 Descending Miami Center
02:23PM 26.2772 -79.9544 217° Southwest 231 266 7,100 -300 Climbing Miami Center
02:24PM 26.2303 -80.0042 224° Southwest 220 253 6,400 -600 Descending Miami Center
02:25PM 26.1811 -80.0539 222° Southwest 224 258 6,000 -180 Descending Miami Center
02:26PM 26.1608 -80.1228 252° West 229 264 6,100 -480 Climbing Miami Center
02:27PM 26.1469 -80.1894 257° West 232 267 5,100 -540 Descending Miami Center
02:28PM 26.1472 -80.2658 270° West 231 266 5,100  Level Miami Center
02:29PM 26.1475 -80.3378 270° West 228 262 5,100  Level Miami Center
02:30PM 26.1503 -80.4003 273° West 208 239 5,100  Level Miami Center
02:31PM 26.1486 -80.4628 268° West 193 222 5,100 -60 Level Miami Center
02:32PM 26.1492 -80.5297 271° West 195 224 5,000 -60 Descending Miami Center
02:33PM 26.1272 -80.5731 241° Southwest 192 221 5,000 -60 Level Miami Center
02:34PM 26.0817 -80.5600 166° South 186 214 4,900 -300 Descending Miami Center
02:35PM 26.0767 -80.4997 95° East 194 223 4,400 -780 Descending Miami Center
02:36PM 26.0825 -80.4375 84° East 194 223 3,400 -1,020 Descending Miami Center
02:37PM 26.0881 -80.3822 84° East 175 201 2,400 -720 Descending Miami Center
02:38PM 26.1017 -80.3317 73° East 172 198 2,000 -300 Descending Miami Center
02:39PM 26.1133 -80.2789 76° East 174 200 1,800 -300 Descending Miami Center
02:40PM 26.1292 -80.2283 71° East 168 193 1,400 -420 Descending Miami Center